createdAt,value
2023-04-23T04:01:50.421Z,5.10
2023-04-23T04:05:54.405Z,4.97
2023-04-23T04:09:56.987Z,5.15
2023-04-23T04:14:01.522Z,6.10
2023-04-23T04:18:05.433Z,5.87
2023-04-23T04:22:07.973Z,6.65
2023-04-23T04:26:10.834Z,6.63
2023-04-23T04:30:14.004Z,5.57
2023-04-23T04:34:17.882Z,7.10
2023-04-23T04:38:21.799Z,6.75
2023-04-23T04:42:25.364Z,7.15
2023-04-23T04:46:29.102Z,8.05
2023-04-23T04:50:33.138Z,8.00
2023-04-23T04:54:35.649Z,8.55
2023-04-23T04:58:38.184Z,8.40
2023-04-23T05:02:40.770Z,9.17
2023-04-23T05:06:44.742Z,8.38
2023-04-23T05:10:47.274Z,8.57
2023-04-23T05:14:50.050Z,9.47
2023-04-23T05:18:53.438Z,8.45
2023-04-23T05:22:59.356Z,8.57
2023-04-23T05:27:02.487Z,9.38
2023-04-23T05:31:05.186Z,10.05
2023-04-23T05:35:08.330Z,9.52
2023-04-23T05:39:12.145Z,10.00
2023-04-23T05:43:14.779Z,10.38
2023-04-23T05:47:18.338Z,10.20
2023-04-23T05:51:20.864Z,10.70
2023-04-23T05:55:25.216Z,10.07
2023-04-23T05:59:27.743Z,10.80
2023-04-23T06:03:30.516Z,10.33
2023-04-23T06:07:33.204Z,10.60
2023-04-23T06:11:37.052Z,10.53
2023-04-23T06:15:39.659Z,10.90
2023-04-23T06:19:42.204Z,11.20
2023-04-23T06:23:44.725Z,10.13
2023-04-23T06:27:48.650Z,10.57
2023-04-23T06:31:56.433Z,9.90
2023-04-23T06:35:58.964Z,10.63
2023-04-23T06:40:01.527Z,10.07
2023-04-23T06:44:06.062Z,11.13
2023-04-23T06:48:11.915Z,11.15
2023-04-23T06:52:14.498Z,10.50
2023-04-23T06:56:17.026Z,11.80
2023-04-23T07:00:21.445Z,12.00
2023-04-23T07:04:24.239Z,13.65
2023-04-23T07:08:26.846Z,13.13
2023-04-23T07:12:29.382Z,14.40
2023-04-23T07:16:34.000Z,13.73
2023-04-23T07:20:37.082Z,15.48
2023-04-23T07:24:39.763Z,13.85
2023-04-23T07:28:42.351Z,14.48
2023-04-23T07:32:46.329Z,12.20
2023-04-23T07:36:48.849Z,11.77
2023-04-23T07:40:51.385Z,12.90
2023-04-23T07:44:53.876Z,12.57
2023-04-23T07:48:57.749Z,13.83
2023-04-23T07:53:00.407Z,13.27
2023-04-23T07:57:02.953Z,12.32
2023-04-23T08:01:05.572Z,12.10
2023-04-23T08:05:10.621Z,12.50
2023-04-23T08:09:13.278Z,10.95
2023-04-23T08:13:15.793Z,9.43
2023-04-23T08:17:18.303Z,10.07
2023-04-23T08:21:22.428Z,9.13
2023-04-23T08:25:25.032Z,9.75
2023-04-23T08:29:27.524Z,9.13
2023-04-23T08:33:30.077Z,7.33
2023-04-23T08:37:33.919Z,7.57
2023-04-23T08:41:40.825Z,6.90
2023-04-23T08:45:48.162Z,6.40
2023-04-23T08:49:54.925Z,6.55
2023-04-23T08:54:00.295Z,6.55
2023-04-23T08:58:06.200Z,6.15
2023-04-23T09:02:10.468Z,5.78
2023-04-23T09:06:13.310Z,6.13
2023-04-23T09:10:18.656Z,5.75
2023-04-23T09:14:23.044Z,4.95
2023-04-23T09:18:25.870Z,4.32
2023-04-23T09:22:45.122Z,3.65
2023-04-23T09:26:52.074Z,3.30
2023-04-23T09:30:54.696Z,2.78
2023-04-23T09:34:57.864Z,2.70
2023-04-23T09:39:00.362Z,3.03
2023-04-23T09:43:05.861Z,2.97
2023-04-23T09:47:10.456Z,3.10
2023-04-23T09:51:14.757Z,2.80
2023-04-23T09:55:28.767Z,2.80
2023-04-23T09:59:46.826Z,2.92
2023-04-23T10:03:54.446Z,2.50
2023-04-23T10:07:58.334Z,2.60
2023-04-23T10:12:02.872Z,2.50
2023-04-23T10:16:20.447Z,2.80
2023-04-23T10:20:24.789Z,2.50
2023-04-23T10:24:30.455Z,2.50
2023-04-23T10:28:34.683Z,2.30
2023-04-23T10:32:39.350Z,2.75
2023-04-23T10:36:41.895Z,2.20
2023-04-23T10:40:47.698Z,2.08
2023-04-23T10:44:59.356Z,2.00
2023-04-23T10:49:14.352Z,2.20
2023-04-23T10:53:21.019Z,2.40
2023-04-23T10:57:23.694Z,2.50
2023-04-23T11:01:26.877Z,2.47
2023-04-23T11:05:30.819Z,2.22
2023-04-23T11:09:39.188Z,2.30
2023-04-23T11:13:52.494Z,2.30
2023-04-23T11:18:02.732Z,2.30
2023-04-23T11:22:08.331Z,2.20
2023-04-23T11:26:10.998Z,2.20
2023-04-23T11:30:16.316Z,2.17
2023-04-23T11:34:19.387Z,2.08
2023-04-23T11:38:23.281Z,2.20
2023-04-23T11:42:25.893Z,2.30
2023-04-23T11:46:28.495Z,2.28
2023-04-23T11:50:33.703Z,1.77
2023-04-23T11:54:37.811Z,2.22
2023-04-23T11:58:40.314Z,2.00
2023-04-23T12:02:51.933Z,1.70
2023-04-23T12:06:55.681Z,2.00
2023-04-23T12:11:03.181Z,2.20
2023-04-23T12:15:07.090Z,2.15
2023-04-23T12:19:10.303Z,2.00
2023-04-23T12:23:13.134Z,1.88
2023-04-23T12:27:20.238Z,1.80
2023-04-23T12:31:24.244Z,1.95
2023-04-23T12:35:39.158Z,1.98
2023-04-23T12:39:41.974Z,1.83
2023-04-23T12:43:48.618Z,2.05
2023-04-23T12:47:51.266Z,1.80
2023-04-23T12:51:57.212Z,2.10
2023-04-23T12:55:59.772Z,2.13
2023-04-23T13:00:04.934Z,1.95
2023-04-23T13:04:07.808Z,1.92
2023-04-23T13:12:12.922Z,1.90
2023-04-23T13:16:16.820Z,1.90
2023-04-23T13:20:19.374Z,2.00
2023-04-23T13:24:21.971Z,1.90
2023-04-23T13:28:25.165Z,2.00
2023-04-23T13:32:32.139Z,1.70
2023-04-23T13:36:35.122Z,2.00
2023-04-23T13:40:37.981Z,1.60
2023-04-23T13:44:40.518Z,1.70
2023-04-23T13:48:44.370Z,1.60
2023-04-23T13:52:48.006Z,1.52
2023-04-23T13:56:50.560Z,1.90
2023-04-23T14:00:53.352Z,1.70
2023-04-23T14:04:58.280Z,1.60
2023-04-23T14:09:00.810Z,1.70
2023-04-23T14:13:04.005Z,1.70
2023-04-23T14:17:06.535Z,1.70
2023-04-23T14:21:10.417Z,2.10
2023-04-23T14:25:24.377Z,1.83
2023-04-23T14:29:32.651Z,1.90
2023-04-23T14:33:35.136Z,1.77
2023-04-23T14:37:39.036Z,1.90
2023-04-23T14:41:42.081Z,1.98
2023-04-23T14:45:44.886Z,1.90
2023-04-23T14:49:47.486Z,1.70
2023-04-23T14:53:53.977Z,1.70
2023-04-23T14:57:57.857Z,1.77
2023-04-23T15:02:01.761Z,1.75
2023-04-23T15:06:05.043Z,1.60
2023-04-23T15:10:11.651Z,1.83
2023-04-23T15:14:23.965Z,1.67
2023-04-23T15:18:26.574Z,2.00
2023-04-23T15:22:29.087Z,1.85
2023-04-23T15:26:33.657Z,2.08
2023-04-23T15:30:36.205Z,1.70
2023-04-23T15:34:38.720Z,1.77
2023-04-23T15:38:41.280Z,1.65
2023-04-23T15:42:45.336Z,1.52
2023-04-23T15:46:47.868Z,1.42
2023-04-23T15:50:50.393Z,1.40
2023-04-23T15:54:52.889Z,1.30
2023-04-23T15:58:57.010Z,1.10
2023-04-23T16:03:01.036Z,1.35
2023-04-23T16:07:03.948Z,1.48
2023-04-23T16:11:08.749Z,1.52
2023-04-23T16:15:13.106Z,1.48
2023-04-23T16:19:15.680Z,1.48
2023-04-23T16:23:18.199Z,1.90
2023-04-23T16:27:21.018Z,1.65
2023-04-23T16:31:24.964Z,1.70
2023-04-23T16:35:27.922Z,1.80
2023-04-23T16:39:30.496Z,1.65
2023-04-23T16:43:33.134Z,2.03
2023-04-23T16:47:38.161Z,1.98
2023-04-23T16:51:40.700Z,1.67
2023-04-23T16:55:43.267Z,1.90
2023-04-23T16:59:45.869Z,2.28
2023-04-23T17:03:50.008Z,1.83
2023-04-23T17:07:53.246Z,2.10
2023-04-23T17:11:56.627Z,1.92
2023-04-23T17:15:59.588Z,1.90
2023-04-23T17:20:03.908Z,2.03
2023-04-23T17:24:06.841Z,2.10
2023-04-23T17:28:09.408Z,2.10
2023-04-23T17:32:12.076Z,2.30
2023-04-23T17:36:16.806Z,2.10
2023-04-23T17:40:19.558Z,2.60
2023-04-23T17:44:22.428Z,2.30
2023-04-23T17:48:25.278Z,2.30
2023-04-23T17:52:29.161Z,2.00
2023-04-23T17:56:31.872Z,2.30
2023-04-23T18:00:35.480Z,2.13
2023-04-23T18:04:38.073Z,2.38
2023-04-23T18:08:42.766Z,2.25
2023-04-23T18:12:45.584Z,2.30
2023-04-23T18:16:48.208Z,2.33
2023-04-23T18:20:51.786Z,2.25
2023-04-23T18:24:55.914Z,2.50
2023-04-23T18:28:58.441Z,2.13
2023-04-23T18:33:08.490Z,2.10
2023-04-23T18:37:27.074Z,2.20
2023-04-23T18:41:31.151Z,2.90
2023-04-23T18:45:33.681Z,2.17
2023-04-23T18:49:44.628Z,2.60
2023-04-23T18:53:47.203Z,2.70
2023-04-23T18:57:51.052Z,2.40
2023-04-23T19:01:53.612Z,2.65
2023-04-23T19:05:56.263Z,2.70
2023-04-23T19:09:58.830Z,2.33
2023-04-23T19:14:02.703Z,2.40
2023-04-23T19:18:06.114Z,2.40
2023-04-23T19:22:08.645Z,2.42
2023-04-23T19:26:11.637Z,2.33
2023-04-23T19:30:15.776Z,2.78
2023-04-23T19:34:19.128Z,2.50
2023-04-23T19:42:24.206Z,2.40
2023-04-23T19:46:28.166Z,2.93
2023-04-23T19:50:31.814Z,2.40
2023-04-23T19:54:34.382Z,2.50
2023-04-23T19:58:36.907Z,2.57
2023-04-23T20:02:41.194Z,2.30
2023-04-23T20:06:43.834Z,2.30
2023-04-23T20:10:46.396Z,2.13
2023-04-23T20:14:48.876Z,2.03
2023-04-23T20:18:52.735Z,1.90
2023-04-23T20:22:55.272Z,2.40
2023-04-23T20:26:58.481Z,2.60
2023-04-23T20:31:00.987Z,2.30
2023-04-23T20:35:05.329Z,2.10
2023-04-23T20:39:08.143Z,2.40
2023-04-23T20:43:10.838Z,2.30
2023-04-23T20:47:13.585Z,2.25
2023-04-23T20:51:17.449Z,1.98
2023-04-23T20:55:20.205Z,1.70
2023-04-23T20:59:22.931Z,1.42
